Airfield :
LOGIN :

Register | Disclaimer

   EN    FR    IT 

 










Legend :    VFR   Marginal VFR   IFR   Intensive IFR   Very Intensive IFR
Visi :
Ceiling :
>= 8 km
>= 3000ft
5 to 8 km
1000 to 3000 ft
1500m to 5 km
500 to 1000 ft
800 to 1500m
200 to 500 ft
< 800m
< 200 ft
Symbols :   Thunderstorms  Fog  Heavy snow  Heavy precipitations  Wind > 20 kt
SIGMETs :     Misc.  Thunderstorms  Icing  Turbulence  Mountain Waves  Volcanic Ashes






- Airport Elevation : 288 ft
- IATA code : BZZ


EGVN - RAF Brize Norton

CURRENT METAR :
  • 101750Z 18005KT CAVOK 31/15 Q1012 NOSIG RMK BLU BLU

EXPIRED METARs :
  • 101720Z 16007KT CAVOK 32/15 Q1012 NOSIG RMK BLU BLU
  • 101650Z 13005KT CAVOK 32/16 Q1012 NOSIG
  • 101630Z 10005KT CAVOK 32/17 Q1012 NOSIG RMK BLU BLU
  • 101550Z 10006KT CAVOK 32/17 Q1012 NOSIG RMK BLU BLU

TAF TAF EGVN
Valid from the 10 at 18:00 until the 11 at 18:00 UTC


101626Z 1018/1118 10005KT CAVOK
PROB30 1104/1109 4000 HZ
PROB30
TEMPO 1113/1118 SCT048CB



MET'MAP, your aeronautical weather chart ! - Copyright ORBIFLY December 2007 - Disclaimer

ORBIFLY MET'MAP TEAM :

Programming & Development : Alexandra Zaïnal
Concept & original design : Baudouin d'Aumeries
Assistance for programming : Marc-Olivier Méhu
Technical & hardware support : Manuel Goepfert

Contact : metmap@orbifly.com




SOURCES & CREDITS :

   NOAA